createdAt,value
2022-07-31T00:00:21.573Z,0.00
2022-07-31T00:01:21.572Z,0.00
2022-07-31T00:02:21.552Z,0.00
2022-07-31T00:03:21.642Z,0.00
2022-07-31T00:04:21.559Z,0.00
2022-07-31T00:05:21.510Z,0.00
2022-07-31T00:06:21.514Z,0.00
2022-07-31T00:07:21.487Z,0.00
2022-07-31T00:08:21.478Z,0.00
2022-07-31T00:09:52.695Z,0.00
2022-07-31T00:10:22.459Z,0.00
2022-07-31T00:11:21.457Z,0.00
2022-07-31T00:12:21.437Z,0.00
2022-07-31T00:13:56.397Z,0.00
2022-07-31T00:14:22.417Z,0.00
2022-07-31T00:15:21.398Z,0.00
2022-07-31T00:16:21.445Z,0.00
2022-07-31T00:17:21.382Z,0.00
2022-07-31T00:18:21.370Z,0.00
2022-07-31T00:19:21.355Z,0.00
2022-07-31T00:20:21.343Z,0.00
2022-07-31T00:21:21.345Z,0.00
2022-07-31T00:22:21.324Z,0.00
2022-07-31T00:23:21.315Z,0.00
2022-07-31T00:24:21.297Z,0.00
2022-07-31T00:25:21.288Z,0.00
2022-07-31T00:26:21.290Z,0.00
2022-07-31T00:27:21.264Z,0.00
2022-07-31T00:28:21.281Z,0.00
2022-07-31T00:29:21.244Z,0.00
2022-07-31T00:30:21.228Z,0.00
2022-07-31T00:31:21.237Z,0.00
2022-07-31T00:32:21.208Z,0.00
2022-07-31T00:33:21.259Z,0.00
2022-07-31T00:34:21.234Z,0.00
2022-07-31T00:35:21.180Z,0.00
2022-07-31T00:36:21.185Z,0.00
2022-07-31T00:37:22.162Z,0.00
2022-07-31T00:38:28.340Z,0.00
2022-07-31T00:39:22.127Z,0.00
2022-07-31T00:40:21.122Z,0.00
2022-07-31T00:41:21.106Z,0.00
2022-07-31T00:42:21.111Z,0.00
2022-07-31T00:43:21.089Z,0.00
2022-07-31T00:44:21.073Z,0.00
2022-07-31T00:45:22.197Z,0.00
2022-07-31T00:46:22.047Z,0.00
2022-07-31T00:47:23.949Z,0.00
2022-07-31T00:48:21.025Z,0.00
2022-07-31T00:49:21.110Z,0.00
2022-07-31T00:50:21.023Z,0.00
2022-07-31T00:51:20.992Z,0.00
2022-07-31T00:52:21.023Z,0.00
2022-07-31T00:53:20.973Z,0.00
2022-07-31T00:54:23.081Z,0.00
2022-07-31T00:55:20.949Z,0.00
2022-07-31T00:56:20.942Z,0.00
2022-07-31T00:57:20.947Z,0.00
2022-07-31T00:58:20.945Z,0.00
2022-07-31T00:59:24.744Z,0.00
2022-07-31T01:00:20.919Z,0.00
2022-07-31T01:01:20.947Z,0.00
2022-07-31T01:02:20.882Z,0.00
2022-07-31T01:03:20.857Z,0.00
2022-07-31T01:04:20.851Z,0.00
2022-07-31T01:05:20.842Z,0.00
2022-07-31T01:06:20.833Z,0.00
2022-07-31T01:07:20.824Z,0.00
2022-07-31T01:08:20.802Z,0.00
2022-07-31T01:09:20.796Z,0.00
2022-07-31T01:10:20.787Z,0.00
2022-07-31T01:11:20.773Z,0.00
2022-07-31T01:12:20.779Z,0.00
2022-07-31T01:13:20.748Z,0.00
2022-07-31T01:14:20.732Z,0.00
2022-07-31T01:15:20.729Z,0.00
2022-07-31T01:16:20.716Z,0.00
2022-07-31T01:17:20.714Z,0.00
2022-07-31T01:18:20.696Z,0.00
2022-07-31T01:19:20.685Z,0.00
2022-07-31T01:20:20.666Z,0.00
2022-07-31T01:21:20.665Z,0.00
2022-07-31T01:22:34.221Z,0.00
2022-07-31T01:23:21.637Z,0.00
2022-07-31T01:24:20.628Z,0.00
2022-07-31T01:25:20.617Z,0.00
2022-07-31T01:26:20.599Z,0.00
2022-07-31T01:27:20.613Z,0.00
2022-07-31T01:28:20.576Z,0.00
2022-07-31T01:29:20.574Z,0.00
2022-07-31T01:30:20.561Z,0.00
2022-07-31T01:31:28.068Z,0.00
2022-07-31T01:32:21.544Z,0.00
2022-07-31T01:33:21.532Z,0.00
2022-07-31T01:34:20.511Z,0.00
2022-07-31T01:35:20.505Z,0.00
2022-07-31T01:36:20.496Z,0.00
2022-07-31T01:37:20.495Z,0.00
2022-07-31T01:38:20.471Z,0.00
2022-07-31T01:39:20.459Z,0.00
2022-07-31T01:40:20.449Z,0.00
2022-07-31T01:41:20.438Z,0.00
2022-07-31T01:42:20.454Z,0.00
2022-07-31T01:43:20.416Z,0.00
2022-07-31T01:44:20.401Z,0.00
2022-07-31T01:45:20.392Z,0.00
2022-07-31T01:46:20.373Z,0.00
2022-07-31T01:47:20.394Z,0.00
2022-07-31T01:48:20.361Z,0.00
2022-07-31T01:49:20.379Z,0.00
2022-07-31T01:50:42.369Z,0.00
2022-07-31T01:51:21.324Z,0.00
2022-07-31T01:52:20.328Z,0.00
2022-07-31T01:53:20.309Z,0.00
2022-07-31T01:54:20.292Z,0.00
2022-07-31T01:55:20.274Z,0.00
2022-07-31T01:56:20.270Z,0.00
2022-07-31T01:57:20.275Z,0.00
2022-07-31T01:58:20.247Z,0.00
2022-07-31T01:59:22.795Z,0.00
2022-07-31T02:00:33.505Z,0.00
2022-07-31T02:01:26.714Z,0.00
2022-07-31T02:02:21.209Z,0.00
2022-07-31T02:03:20.193Z,0.00
2022-07-31T02:04:21.172Z,0.00
2022-07-31T02:05:20.176Z,0.00
2022-07-31T02:06:20.156Z,0.00
2022-07-31T02:07:20.159Z,0.00
2022-07-31T02:08:20.137Z,0.00
2022-07-31T02:09:20.122Z,0.00
2022-07-31T02:10:20.105Z,0.00
2022-07-31T02:11:20.110Z,0.00
2022-07-31T02:12:20.103Z,0.00
2022-07-31T02:13:21.079Z,0.00
2022-07-31T02:14:20.060Z,0.00
2022-07-31T02:15:20.049Z,0.00
2022-07-31T02:16:20.047Z,0.00
2022-07-31T02:17:22.258Z,0.00
2022-07-31T02:18:20.016Z,0.00
2022-07-31T02:19:20.013Z,0.00
2022-07-31T02:20:20.003Z,0.00
2022-07-31T02:21:19.986Z,0.00
2022-07-31T02:22:19.987Z,0.00
2022-07-31T02:23:19.970Z,0.00
2022-07-31T02:24:19.960Z,0.00
2022-07-31T02:25:19.946Z,0.00
2022-07-31T02:26:19.931Z,0.00
2022-07-31T02:27:57.905Z,0.00
2022-07-31T02:28:20.909Z,0.00
2022-07-31T02:32:49.342Z,0.00
2022-07-31T02:33:49.315Z,0.00
2022-07-31T02:34:49.313Z,0.00
2022-07-31T02:35:49.296Z,0.00
2022-07-31T02:36:49.289Z,0.00
2022-07-31T02:37:49.293Z,0.00
2022-07-31T02:38:49.265Z,0.00
2022-07-31T02:39:49.247Z,0.00
2022-07-31T02:40:49.239Z,0.00
2022-07-31T02:41:49.233Z,0.00
2022-07-31T02:42:49.235Z,0.00
2022-07-31T02:43:49.203Z,0.00
2022-07-31T02:44:49.200Z,0.00
2022-07-31T02:45:49.196Z,0.00
2022-07-31T02:46:49.178Z,0.00
2022-07-31T02:47:49.177Z,0.00
2022-07-31T02:48:49.205Z,0.00
2022-07-31T02:49:49.137Z,0.00
2022-07-31T02:50:49.132Z,0.00
2022-07-31T02:51:49.122Z,0.00
2022-07-31T02:52:49.118Z,0.00
2022-07-31T02:53:49.099Z,0.00
2022-07-31T02:54:49.084Z,0.00
2022-07-31T02:55:49.070Z,0.00
2022-07-31T02:56:49.057Z,0.00
2022-07-31T02:57:49.069Z,0.00
2022-07-31T02:58:49.035Z,0.00
2022-07-31T02:59:49.035Z,0.00
2022-07-31T03:00:49.058Z,0.00
2022-07-31T03:01:49.002Z,0.00
2022-07-31T03:02:49.010Z,0.00
2022-07-31T03:03:48.979Z,0.00
2022-07-31T03:04:48.972Z,0.00
2022-07-31T03:05:48.964Z,0.00
2022-07-31T03:06:48.953Z,0.00
2022-07-31T03:07:48.954Z,0.00
2022-07-31T03:08:48.924Z,0.00
2022-07-31T03:09:48.913Z,0.00
2022-07-31T03:10:48.909Z,0.00
2022-07-31T03:11:48.899Z,0.00
2022-07-31T03:12:48.887Z,0.00
2022-07-31T03:13:48.891Z,0.00
2022-07-31T03:14:48.864Z,0.00
2022-07-31T03:15:50.889Z,0.00
2022-07-31T03:16:48.846Z,0.00
2022-07-31T03:17:48.834Z,0.00
2022-07-31T03:18:48.838Z,0.00
2022-07-31T03:19:48.802Z,0.00
2022-07-31T03:20:48.796Z,0.00
2022-07-31T03:21:48.794Z,0.00
2022-07-31T03:22:48.775Z,0.00
2022-07-31T03:23:48.772Z,0.00
2022-07-31T03:24:48.745Z,0.00
2022-07-31T03:25:48.735Z,0.00
2022-07-31T03:26:48.730Z,0.00
2022-07-31T03:27:55.601Z,4.00
2022-07-31T03:28:49.715Z,4.00
2022-07-31T03:29:48.697Z,0.00
2022-07-31T03:30:48.679Z,0.00
2022-07-31T03:31:48.677Z,4.00
2022-07-31T03:32:48.663Z,4.00
2022-07-31T03:33:48.668Z,4.00
2022-07-31T03:34:48.633Z,4.00
2022-07-31T03:35:48.631Z,4.00
2022-07-31T03:36:48.618Z,4.00
2022-07-31T03:37:48.600Z,8.00
2022-07-31T03:38:50.636Z,4.00
2022-07-31T03:39:48.585Z,8.00
2022-07-31T03:40:48.581Z,8.00
2022-07-31T03:41:48.556Z,8.00
2022-07-31T03:42:48.544Z,12.00
2022-07-31T03:43:48.740Z,12.00
2022-07-31T03:44:48.527Z,12.00
2022-07-31T03:45:48.518Z,16.00
2022-07-31T03:46:48.506Z,20.00
2022-07-31T03:47:48.498Z,20.00
2022-07-31T03:48:48.636Z,28.00
2022-07-31T03:49:48.471Z,32.00
2022-07-31T03:50:48.463Z,32.00
2022-07-31T03:51:48.451Z,36.00
2022-07-31T03:52:48.439Z,40.00
2022-07-31T03:53:48.444Z,40.00
2022-07-31T03:54:48.410Z,44.00
2022-07-31T03:55:48.398Z,44.00
2022-07-31T03:56:48.596Z,52.00
2022-07-31T03:57:48.375Z,64.00
2022-07-31T03:58:52.494Z,72.00
2022-07-31T03:59:48.804Z,76.00
2022-07-31T04:00:48.348Z,80.00
2022-07-31T04:01:57.455Z,84.00
2022-07-31T04:02:49.376Z,80.00
2022-07-31T04:03:48.323Z,80.00
2022-07-31T04:04:48.307Z,84.00
2022-07-31T04:05:48.295Z,96.00
2022-07-31T04:06:48.280Z,108.00
2022-07-31T04:07:48.272Z,120.00
2022-07-31T04:08:48.263Z,132.00
2022-07-31T04:09:48.239Z,144.00
2022-07-31T04:10:48.235Z,160.00
2022-07-31T04:11:48.216Z,172.00
2022-07-31T04:12:48.211Z,188.00
2022-07-31T04:13:48.210Z,200.00
2022-07-31T04:14:48.180Z,220.00
2022-07-31T04:15:48.178Z,248.00
2022-07-31T04:16:48.159Z,272.00
2022-07-31T04:17:48.193Z,292.00
2022-07-31T04:18:51.012Z,296.00
2022-07-31T04:19:48.135Z,304.00
2022-07-31T04:20:48.119Z,316.00
2022-07-31T04:21:48.101Z,340.00
2022-07-31T04:22:49.337Z,368.00
2022-07-31T04:23:50.361Z,388.00
2022-07-31T04:24:48.084Z,396.00
2022-07-31T04:25:48.064Z,376.00
2022-07-31T04:26:48.050Z,356.00
2022-07-31T04:27:48.986Z,364.00
2022-07-31T04:28:48.020Z,384.00
2022-07-31T04:29:48.032Z,400.00
2022-07-31T04:30:47.998Z,408.00
2022-07-31T04:31:47.987Z,408.00
2022-07-31T04:32:47.984Z,392.00
2022-07-31T04:33:50.327Z,364.00
2022-07-31T04:34:48.972Z,340.00
2022-07-31T04:35:47.957Z,316.00
2022-07-31T04:36:47.928Z,300.00
2022-07-31T04:37:48.495Z,300.00
2022-07-31T04:38:47.924Z,316.00
2022-07-31T04:39:47.917Z,324.00
2022-07-31T04:40:47.882Z,336.00
2022-07-31T04:41:47.879Z,352.00
2022-07-31T04:42:47.862Z,368.00
2022-07-31T04:43:47.849Z,400.00
2022-07-31T04:44:47.859Z,432.00
2022-07-31T04:45:47.826Z,452.00
2022-07-31T04:46:47.823Z,460.00
2022-07-31T04:47:47.810Z,468.00
2022-07-31T04:48:49.232Z,468.00
2022-07-31T04:49:47.804Z,464.00
2022-07-31T04:50:47.768Z,460.00
2022-07-31T04:51:47.758Z,472.00
2022-07-31T04:52:47.745Z,500.00
2022-07-31T04:53:47.741Z,528.00
2022-07-31T04:54:47.748Z,572.00
2022-07-31T04:55:47.714Z,612.00
2022-07-31T04:56:47.706Z,640.00
2022-07-31T04:57:47.697Z,660.00
2022-07-31T04:58:47.684Z,672.00
2022-07-31T05:00:00.118Z,680.00
2022-07-31T05:00:48.654Z,704.00
2022-07-31T05:01:47.693Z,736.00
2022-07-31T05:02:47.682Z,764.00
2022-07-31T05:03:47.626Z,824.00
2022-07-31T05:04:47.631Z,864.00
2022-07-31T05:05:48.604Z,872.00
2022-07-31T05:06:47.585Z,896.00
2022-07-31T05:07:47.574Z,944.00
2022-07-31T05:08:47.573Z,952.00
2022-07-31T05:09:47.573Z,964.00
2022-07-31T05:10:47.546Z,976.00
2022-07-31T05:11:47.548Z,1008.00
2022-07-31T05:12:47.525Z,980.00
2022-07-31T05:13:47.514Z,920.00
2022-07-31T05:14:47.531Z,836.00
2022-07-31T05:15:47.490Z,800.00
2022-07-31T05:16:47.485Z,820.00
2022-07-31T05:17:47.461Z,856.00
2022-07-31T05:18:47.454Z,932.00
2022-07-31T05:19:47.462Z,1032.00
2022-07-31T05:20:47.437Z,1080.00
2022-07-31T05:21:54.256Z,1100.00
2022-07-31T05:22:48.406Z,1168.00
2022-07-31T05:23:47.401Z,1204.00
2022-07-31T05:24:47.403Z,1244.00
2022-07-31T05:25:47.375Z,1260.00
2022-07-31T05:26:47.368Z,1252.00
2022-07-31T05:27:47.355Z,1236.00
2022-07-31T05:28:47.340Z,1204.00
2022-07-31T05:29:47.340Z,1228.00
2022-07-31T05:30:47.321Z,1324.00
2022-07-31T05:31:59.950Z,1464.00
2022-07-31T05:32:48.296Z,1612.00
2022-07-31T05:33:47.280Z,1732.00
2022-07-31T05:34:47.286Z,1816.00
2022-07-31T05:35:47.255Z,1896.00
2022-07-31T05:36:47.248Z,1916.00
2022-07-31T05:37:47.241Z,1960.00
2022-07-31T05:38:47.241Z,2004.00
2022-07-31T05:39:47.224Z,2116.00
2022-07-31T05:40:47.211Z,2252.00
2022-07-31T05:41:47.188Z,2208.00
2022-07-31T05:42:47.180Z,2140.00
2022-07-31T05:43:47.173Z,2160.00
2022-07-31T05:44:47.169Z,2140.00
2022-07-31T05:45:47.143Z,2104.00
2022-07-31T05:46:47.142Z,2080.00
2022-07-31T05:47:47.120Z,2064.00
2022-07-31T05:48:47.143Z,1944.00
2022-07-31T05:49:47.122Z,1864.00
2022-07-31T05:50:47.089Z,1856.00
2022-07-31T05:51:47.232Z,1904.00
2022-07-31T05:52:47.065Z,1912.00
2022-07-31T05:53:47.060Z,1924.00
2022-07-31T05:54:47.066Z,1884.00
2022-07-31T05:55:47.035Z,1848.00
2022-07-31T05:56:47.023Z,1880.00
2022-07-31T05:57:47.014Z,1900.00
2022-07-31T05:58:48.457Z,1916.00
2022-07-31T05:59:47.010Z,1928.00
2022-07-31T06:00:46.983Z,1988.00
2022-07-31T06:01:47.049Z,1988.00
2022-07-31T06:02:47.033Z,2024.00
2022-07-31T06:03:52.057Z,2212.00
2022-07-31T06:04:47.953Z,2376.00
2022-07-31T06:05:46.929Z,2372.00
2022-07-31T06:06:46.915Z,2440.00
2022-07-31T06:07:51.060Z,2604.00
2022-07-31T06:08:46.897Z,2880.00
2022-07-31T06:09:46.896Z,3100.00
2022-07-31T06:10:46.874Z,3084.00
2022-07-31T06:11:46.852Z,3148.00
2022-07-31T06:12:46.844Z,3292.00
2022-07-31T06:13:46.837Z,3404.00
2022-07-31T06:14:46.846Z,3436.00
2022-07-31T06:15:49.264Z,3496.00
2022-07-31T06:16:46.806Z,3628.00
2022-07-31T06:17:46.784Z,3688.00
2022-07-31T06:18:46.774Z,3728.00
2022-07-31T06:19:46.784Z,3812.00
2022-07-31T06:20:46.753Z,3912.00
2022-07-31T06:21:46.754Z,3968.00
2022-07-31T06:22:46.746Z,3996.00
2022-07-31T06:23:46.727Z,3912.00
2022-07-31T06:24:46.734Z,3692.00
2022-07-31T06:25:46.708Z,3632.00
2022-07-31T06:26:46.690Z,3768.00
2022-07-31T06:27:50.821Z,3776.00
2022-07-31T06:28:49.205Z,3692.00
2022-07-31T06:29:46.669Z,3608.00
2022-07-31T06:30:46.644Z,3508.00
2022-07-31T06:31:46.636Z,3440.00
2022-07-31T06:32:46.631Z,3424.00
2022-07-31T06:33:48.111Z,3352.00
2022-07-31T06:34:46.624Z,3292.00
2022-07-31T06:35:46.592Z,3284.00
2022-07-31T06:36:46.582Z,3352.00
2022-07-31T06:37:46.575Z,3504.00
2022-07-31T06:38:46.552Z,3632.00
2022-07-31T06:39:56.028Z,3692.00
2022-07-31T06:40:47.529Z,3668.00
2022-07-31T06:41:46.518Z,3684.00
2022-07-31T06:42:46.507Z,3764.00
2022-07-31T06:43:46.502Z,3784.00
2022-07-31T06:44:46.648Z,3804.00
2022-07-31T06:45:51.422Z,3804.00
2022-07-31T06:46:49.186Z,3720.00
2022-07-31T06:47:46.456Z,3596.00
2022-07-31T06:48:46.468Z,3540.00
2022-07-31T06:49:46.579Z,3488.00
2022-07-31T06:50:46.425Z,3540.00
2022-07-31T06:51:46.425Z,3584.00
2022-07-31T06:52:46.507Z,3620.00
2022-07-31T06:53:46.389Z,3696.00
2022-07-31T06:54:46.391Z,3792.00
2022-07-31T06:55:46.368Z,3852.00
2022-07-31T06:56:46.356Z,3840.00
2022-07-31T06:57:46.337Z,3748.00
2022-07-31T06:58:46.334Z,3564.00
2022-07-31T06:59:46.339Z,3540.00
2022-07-31T07:00:46.306Z,3460.00
2022-07-31T07:01:46.336Z,3468.00
2022-07-31T07:02:46.303Z,3396.00
2022-07-31T07:03:46.270Z,3236.00
2022-07-31T07:05:05.190Z,2832.00
2022-07-31T07:05:47.243Z,2612.00
2022-07-31T07:06:46.233Z,2688.00
2022-07-31T07:07:46.224Z,2848.00
2022-07-31T07:08:46.216Z,2952.00
2022-07-31T07:09:46.219Z,3028.00
2022-07-31T07:10:46.199Z,2988.00
2022-07-31T07:11:46.188Z,2944.00
2022-07-31T07:12:46.180Z,2880.00
2022-07-31T07:13:46.977Z,2832.00
2022-07-31T07:14:46.166Z,2808.00
2022-07-31T07:15:46.136Z,2808.00
2022-07-31T07:16:46.133Z,2784.00
2022-07-31T07:17:46.114Z,2768.00
2022-07-31T07:18:46.111Z,2744.00
2022-07-31T07:19:46.129Z,2792.00
2022-07-31T07:20:47.086Z,2840.00
2022-07-31T07:21:46.067Z,2984.00
2022-07-31T07:22:46.072Z,3208.00
2022-07-31T07:23:46.051Z,3404.00
2022-07-31T07:24:46.060Z,3456.00
2022-07-31T07:25:46.042Z,3364.00
2022-07-31T07:26:46.013Z,3156.00
2022-07-31T07:27:46.011Z,2912.00
2022-07-31T07:28:45.989Z,2708.00
2022-07-31T07:29:45.999Z,2568.00
2022-07-31T07:30:45.991Z,2556.00
2022-07-31T07:31:45.955Z,2604.00
2022-07-31T07:32:45.952Z,2700.00
2022-07-31T07:33:45.933Z,2784.00
2022-07-31T07:34:45.945Z,2784.00
2022-07-31T07:35:45.916Z,2700.00
2022-07-31T07:36:45.911Z,2568.00
2022-07-31T07:37:45.894Z,2500.00
2022-07-31T07:38:45.883Z,2476.00
2022-07-31T07:39:45.885Z,2468.00
2022-07-31T07:40:45.862Z,2336.00
2022-07-31T07:41:45.850Z,2160.00
2022-07-31T07:42:45.833Z,1920.00
2022-07-31T07:43:51.656Z,1776.00
2022-07-31T07:44:46.830Z,1740.00
2022-07-31T07:45:45.803Z,1768.00
2022-07-31T07:46:45.830Z,1832.00
2022-07-31T07:48:05.418Z,1900.00
2022-07-31T07:48:46.830Z,2020.00
2022-07-31T07:49:45.766Z,2188.00
2022-07-31T07:50:45.760Z,2372.00
2022-07-31T07:51:59.042Z,2592.00
2022-07-31T07:52:46.722Z,2760.00
2022-07-31T07:53:45.707Z,2820.00
2022-07-31T07:54:45.719Z,2924.00
2022-07-31T07:55:45.688Z,3016.00
2022-07-31T07:56:45.681Z,2948.00
2022-07-31T07:57:45.670Z,2688.00
2022-07-31T07:58:45.651Z,2492.00
2022-07-31T07:59:45.656Z,2588.00
2022-07-31T08:00:45.679Z,2864.00
2022-07-31T08:01:45.622Z,3424.00
2022-07-31T08:03:02.878Z,4088.00
2022-07-31T08:03:51.831Z,4992.00
2022-07-31T08:04:47.680Z,6244.00
2022-07-31T08:05:45.573Z,7628.00
2022-07-31T08:06:45.561Z,8088.00
2022-07-31T08:07:45.552Z,7792.00
2022-07-31T08:08:45.549Z,7924.00
2022-07-31T08:09:45.543Z,7940.00
2022-07-31T08:10:45.526Z,8576.00
2022-07-31T08:11:45.506Z,9860.00
2022-07-31T08:12:45.502Z,10320.00
2022-07-31T08:13:49.710Z,11412.00
2022-07-31T08:14:45.491Z,13076.00
2022-07-31T08:15:45.461Z,12772.00
2022-07-31T08:16:45.459Z,21632.00
2022-07-31T08:17:45.444Z,13464.00
2022-07-31T08:18:45.436Z,10052.00
2022-07-31T08:19:49.561Z,13020.00
2022-07-31T08:20:46.406Z,10160.00
2022-07-31T08:21:45.395Z,9548.00
2022-07-31T08:22:45.383Z,9460.00
2022-07-31T08:23:45.374Z,9592.00
2022-07-31T08:24:45.384Z,9696.00
2022-07-31T08:25:45.360Z,9528.00
2022-07-31T08:26:45.344Z,9932.00
2022-07-31T08:27:47.891Z,9932.00
2022-07-31T08:28:49.999Z,9836.00
2022-07-31T08:29:46.321Z,10460.00
2022-07-31T08:30:45.296Z,11488.00
2022-07-31T08:31:49.616Z,12772.00
2022-07-31T08:32:45.269Z,16960.00
2022-07-31T08:33:45.266Z,14968.00
2022-07-31T08:34:45.271Z,14244.00
2022-07-31T08:35:50.575Z,13184.00
2022-07-31T08:36:46.225Z,11588.00
2022-07-31T08:37:59.182Z,11752.00
2022-07-31T08:38:46.203Z,13432.00
2022-07-31T08:39:45.216Z,14820.00
2022-07-31T08:40:45.189Z,15592.00
2022-07-31T08:41:45.177Z,19776.00
2022-07-31T08:42:45.162Z,18528.00
2022-07-31T08:44:00.332Z,17120.00
2022-07-31T08:44:46.161Z,13088.00
2022-07-31T08:45:45.125Z,11428.00
2022-07-31T08:46:45.116Z,9544.00
2022-07-31T08:47:45.111Z,9092.00
2022-07-31T08:48:45.146Z,8364.00
2022-07-31T08:49:45.101Z,8088.00
2022-07-31T08:50:45.089Z,8592.00
2022-07-31T08:51:50.792Z,9708.00
2022-07-31T08:52:46.146Z,10472.00
2022-07-31T08:53:45.044Z,10244.00
2022-07-31T08:54:45.041Z,10012.00
2022-07-31T08:55:55.558Z,10656.00
2022-07-31T08:56:46.015Z,12008.00
2022-07-31T08:57:44.995Z,14036.00
2022-07-31T08:58:44.993Z,14748.00
2022-07-31T08:59:45.012Z,16448.00
2022-07-31T09:00:45.040Z,48384.00
2022-07-31T09:01:44.957Z,22112.00
2022-07-31T09:02:44.953Z,41632.00
2022-07-31T09:03:44.939Z,31328.00
2022-07-31T09:04:47.316Z,62592.00
2022-07-31T09:05:44.920Z,41856.00
2022-07-31T09:06:44.903Z,34528.00
2022-07-31T09:07:44.907Z,27232.00
2022-07-31T09:08:44.877Z,20384.00
2022-07-31T09:09:50.771Z,13336.00
2022-07-31T09:10:50.052Z,10540.00
2022-07-31T09:11:44.849Z,7956.00
2022-07-31T09:12:44.829Z,6480.00
2022-07-31T09:13:44.819Z,5552.00
2022-07-31T09:14:45.830Z,4936.00
2022-07-31T09:15:44.802Z,4552.00
2022-07-31T09:16:44.794Z,4320.00
2022-07-31T09:17:53.987Z,4172.00
2022-07-31T09:18:45.783Z,4040.00
2022-07-31T09:19:54.062Z,3944.00
2022-07-31T09:20:45.755Z,3952.00
2022-07-31T09:21:44.739Z,4040.00
2022-07-31T09:22:44.731Z,4220.00
2022-07-31T09:23:44.708Z,4384.00
2022-07-31T09:24:44.722Z,4404.00
2022-07-31T09:25:44.696Z,4616.00
2022-07-31T09:26:44.693Z,4888.00
2022-07-31T09:27:44.686Z,5316.00
2022-07-31T09:28:44.663Z,5816.00
2022-07-31T09:29:44.765Z,6316.00
2022-07-31T09:30:56.254Z,6876.00
2022-07-31T09:31:45.631Z,7828.00
2022-07-31T09:32:44.618Z,9556.00
2022-07-31T09:33:45.928Z,11492.00
2022-07-31T09:34:44.603Z,12832.00
2022-07-31T09:35:44.578Z,12220.00
2022-07-31T09:36:44.573Z,13376.00
2022-07-31T09:37:44.556Z,18912.00
2022-07-31T09:38:44.560Z,19488.00
2022-07-31T09:39:52.065Z,16448.00
2022-07-31T09:40:51.562Z,13136.00
2022-07-31T09:41:59.913Z,11632.00
2022-07-31T09:42:45.687Z,10528.00
2022-07-31T09:43:51.902Z,10176.00
2022-07-31T09:44:45.492Z,9848.00
2022-07-31T09:45:48.182Z,10460.00
2022-07-31T09:46:44.467Z,13312.00
2022-07-31T09:47:44.451Z,17664.00
2022-07-31T09:48:44.443Z,15096.00
2022-07-31T09:49:44.467Z,18528.00
2022-07-31T09:50:44.420Z,17824.00
2022-07-31T09:51:44.410Z,23168.00
2022-07-31T09:52:44.526Z,17888.00
2022-07-31T09:53:44.382Z,15936.00
2022-07-31T09:54:44.375Z,14448.00
2022-07-31T09:55:44.388Z,14088.00
2022-07-31T09:56:44.352Z,17056.00
2022-07-31T09:57:50.082Z,19712.00
2022-07-31T09:58:45.322Z,20064.00
2022-07-31T09:59:44.352Z,21056.00
2022-07-31T10:00:44.404Z,18656.00
2022-07-31T10:01:44.301Z,23040.00
2022-07-31T10:02:44.327Z,28576.00
2022-07-31T10:03:44.277Z,50144.00
2022-07-31T10:04:44.258Z,48352.00
2022-07-31T10:05:44.272Z,33856.00
2022-07-31T10:06:44.240Z,28256.00
2022-07-31T10:07:44.227Z,24640.00
2022-07-31T10:08:44.214Z,20704.00
2022-07-31T10:09:44.212Z,22176.00
2022-07-31T10:10:44.206Z,22496.00
2022-07-31T10:11:44.190Z,20256.00
2022-07-31T10:12:44.179Z,19680.00
2022-07-31T10:13:44.169Z,18336.00
2022-07-31T10:14:44.150Z,17600.00
2022-07-31T10:15:44.167Z,12896.00
2022-07-31T10:16:44.130Z,10512.00
2022-07-31T10:17:44.125Z,8568.00
2022-07-31T10:18:44.529Z,7672.00
2022-07-31T10:19:44.098Z,7420.00
2022-07-31T10:20:44.108Z,7112.00
2022-07-31T10:21:44.075Z,6796.00
2022-07-31T10:22:44.073Z,6344.00
2022-07-31T10:23:44.054Z,5724.00
2022-07-31T10:24:44.043Z,5176.00
2022-07-31T10:25:44.047Z,5240.00
2022-07-31T10:27:10.408Z,5944.00
2022-07-31T10:27:45.007Z,4648.00
2022-07-31T10:28:43.999Z,4480.00
2022-07-31T10:29:43.995Z,4796.00
2022-07-31T10:30:43.996Z,7724.00
2022-07-31T10:31:43.973Z,34944.00
2022-07-31T10:32:43.964Z,17536.00
2022-07-31T10:33:45.073Z,28672.00
2022-07-31T10:34:43.944Z,47872.00
2022-07-31T10:35:43.951Z,23488.00
2022-07-31T10:36:44.920Z,61600.00
2022-07-31T10:37:43.904Z,64128.00
2022-07-31T10:38:43.889Z,15508.00
2022-07-31T10:39:43.889Z,17312.00
2022-07-31T10:40:43.890Z,19072.00
2022-07-31T10:41:43.872Z,21728.00
2022-07-31T10:42:43.850Z,18080.00
2022-07-31T10:43:43.839Z,17824.00
2022-07-31T10:44:43.824Z,21408.00
2022-07-31T10:45:43.836Z,23936.00
2022-07-31T10:46:43.811Z,27008.00
2022-07-31T10:47:48.030Z,59328.00
2022-07-31T10:48:44.783Z,59008.00
2022-07-31T10:49:43.886Z,44032.00
2022-07-31T10:50:43.775Z,53760.00
2022-07-31T10:51:43.758Z,70016.00
2022-07-31T10:52:43.738Z,73760.00
2022-07-31T10:53:51.378Z,97216.00
2022-07-31T10:54:44.723Z,49408.00
2022-07-31T10:55:43.731Z,31072.00
2022-07-31T10:56:43.696Z,23488.00
2022-07-31T10:57:55.992Z,79072.00
2022-07-31T10:58:44.675Z,61920.00
2022-07-31T10:59:44.839Z,18688.00
2022-07-31T11:00:43.668Z,22624.00
2022-07-31T11:01:43.667Z,21184.00
2022-07-31T11:02:44.653Z,15008.00
2022-07-31T11:03:43.628Z,14488.00
2022-07-31T11:04:43.614Z,17760.00
2022-07-31T11:06:01.930Z,16672.00
2022-07-31T11:06:44.629Z,14484.00
2022-07-31T11:07:43.589Z,17088.00
2022-07-31T11:08:43.569Z,12644.00
2022-07-31T11:09:51.266Z,11492.00
2022-07-31T11:10:44.568Z,11104.00
2022-07-31T11:11:43.547Z,10680.00
2022-07-31T11:12:43.535Z,11448.00
2022-07-31T11:13:43.517Z,10720.00
2022-07-31T11:14:43.515Z,10064.00
2022-07-31T11:15:43.519Z,9576.00
2022-07-31T11:16:43.493Z,10228.00
2022-07-31T11:18:22.196Z,8744.00
2022-07-31T11:18:44.469Z,8972.00
2022-07-31T11:19:43.466Z,9084.00
2022-07-31T11:20:43.469Z,9420.00
2022-07-31T11:21:43.436Z,10788.00
2022-07-31T11:22:43.426Z,11752.00
2022-07-31T11:23:56.194Z,11768.00
2022-07-31T11:24:44.402Z,10344.00
2022-07-31T11:25:43.408Z,9432.00
2022-07-31T11:26:43.381Z,15340.00
2022-07-31T11:27:43.381Z,16704.00
2022-07-31T11:28:43.369Z,14484.00
2022-07-31T11:30:00.249Z,17536.00
2022-07-31T11:30:44.366Z,17568.00
2022-07-31T11:31:43.330Z,16704.00
2022-07-31T11:32:43.328Z,16480.00
2022-07-31T11:33:43.309Z,14744.00
2022-07-31T11:34:43.296Z,13616.00
2022-07-31T11:35:43.303Z,11848.00
2022-07-31T11:36:43.276Z,11520.00
2022-07-31T11:37:56.650Z,11512.00
2022-07-31T11:38:44.775Z,13828.00
2022-07-31T11:39:51.392Z,12912.00
2022-07-31T11:40:44.255Z,10356.00
2022-07-31T11:41:44.619Z,9504.00
2022-07-31T11:42:43.222Z,8788.00
2022-07-31T11:43:43.211Z,7168.00
2022-07-31T11:44:43.201Z,7280.00
2022-07-31T11:45:43.210Z,8712.00
2022-07-31T11:46:43.375Z,12176.00
2022-07-31T11:48:12.602Z,13836.00
2022-07-31T11:48:45.689Z,13208.00
2022-07-31T11:49:48.547Z,11216.00
2022-07-31T11:50:44.138Z,8812.00
2022-07-31T11:51:43.125Z,7560.00
2022-07-31T11:52:43.112Z,6592.00
2022-07-31T11:53:43.094Z,5928.00
2022-07-31T11:54:43.086Z,5980.00
2022-07-31T11:55:43.099Z,6692.00
2022-07-31T11:56:43.068Z,7296.00
2022-07-31T11:57:52.363Z,7376.00
2022-07-31T11:58:44.040Z,7612.00
2022-07-31T11:59:46.245Z,10136.00
2022-07-31T12:00:44.041Z,10208.00
2022-07-31T12:01:43.013Z,11144.00
2022-07-31T12:02:43.036Z,11712.00
2022-07-31T12:03:42.998Z,12020.00
2022-07-31T12:04:42.985Z,9872.00
2022-07-31T12:05:43.008Z,11300.00
2022-07-31T12:06:42.964Z,7276.00
2022-07-31T12:07:42.956Z,9360.00
2022-07-31T12:08:42.943Z,8612.00
2022-07-31T12:10:01.065Z,8372.00
2022-07-31T12:10:43.938Z,8076.00
2022-07-31T12:11:42.911Z,8768.00
2022-07-31T12:12:42.902Z,8976.00
2022-07-31T12:13:42.887Z,9444.00
2022-07-31T12:14:42.873Z,10612.00
2022-07-31T12:15:42.877Z,11448.00
2022-07-31T12:16:42.849Z,11620.00
2022-07-31T12:17:42.849Z,11828.00
2022-07-31T12:18:42.855Z,11876.00
2022-07-31T12:19:42.819Z,10824.00
2022-07-31T12:20:42.823Z,11484.00
2022-07-31T12:21:42.802Z,10676.00
2022-07-31T12:22:42.791Z,9984.00
2022-07-31T12:23:42.780Z,9808.00
2022-07-31T12:24:42.762Z,6140.00
2022-07-31T12:25:42.778Z,5616.00
2022-07-31T12:26:42.751Z,5312.00
2022-07-31T12:27:42.735Z,5244.00